createdAt,value
2017-11-25T00:00:43.723Z,1002.20
2017-11-25T00:01:43.726Z,1002.21
2017-11-25T00:02:43.716Z,1002.16
2017-11-25T00:03:43.710Z,1002.17
2017-11-25T00:04:43.707Z,1002.06
2017-11-25T00:05:43.702Z,1002.03
2017-11-25T00:06:43.699Z,1002.01
2017-11-25T00:07:43.696Z,1002.03
2017-11-25T00:08:43.690Z,1002.02
2017-11-25T00:09:43.684Z,1002.00
2017-11-25T00:10:43.682Z,1001.95
2017-11-25T00:11:43.677Z,1001.93
2017-11-25T00:12:43.673Z,1001.91
2017-11-25T00:13:43.668Z,1001.93
2017-11-25T00:14:43.664Z,1001.99
2017-11-25T00:15:43.665Z,1001.97
2017-11-25T00:16:43.653Z,1001.98
2017-11-25T00:17:43.652Z,1001.96
2017-11-25T00:18:43.646Z,1001.97
2017-11-25T00:19:43.644Z,1001.95
2017-11-25T00:20:43.637Z,1001.94
2017-11-25T00:21:43.634Z,1001.94
2017-11-25T00:22:43.629Z,1001.89
2017-11-25T00:23:43.625Z,1001.80
2017-11-25T00:24:43.622Z,1001.74
2017-11-25T00:25:43.617Z,1001.70
2017-11-25T00:26:43.609Z,1001.70
2017-11-25T00:27:43.608Z,1001.69
2017-11-25T00:28:43.608Z,1001.71
2017-11-25T00:29:43.600Z,1001.72
2017-11-25T00:30:43.594Z,1001.70
2017-11-25T00:31:43.591Z,1001.72
2017-11-25T00:32:43.595Z,1001.73
2017-11-25T00:33:43.580Z,1001.71
2017-11-25T00:34:43.581Z,1001.69
2017-11-25T00:35:43.573Z,1001.69
2017-11-25T00:36:43.567Z,1001.69
2017-11-25T00:37:43.561Z,1001.62
2017-11-25T00:38:43.562Z,1001.59
2017-11-25T00:39:43.555Z,1001.58
2017-11-25T00:40:43.548Z,1001.58
2017-11-25T00:41:43.546Z,1001.54
2017-11-25T00:42:43.546Z,1001.52
2017-11-25T00:43:43.543Z,1001.50
2017-11-25T00:44:43.533Z,1001.44
2017-11-25T00:45:43.530Z,1001.43
2017-11-25T00:46:43.524Z,1001.38
2017-11-25T00:47:43.531Z,1001.41
2017-11-25T00:48:43.517Z,1001.37
2017-11-25T00:49:43.511Z,1001.39
2017-11-25T00:50:43.507Z,1001.39
2017-11-25T00:51:43.504Z,1001.42
2017-11-25T00:52:43.499Z,1001.41
2017-11-25T00:53:43.505Z,1001.42
2017-11-25T00:54:43.489Z,1001.43
2017-11-25T00:55:43.486Z,1001.39
2017-11-25T00:56:43.481Z,1001.47
2017-11-25T00:57:43.478Z,1001.42
2017-11-25T00:58:43.472Z,1001.44
2017-11-25T00:59:43.470Z,1001.45
2017-11-25T01:00:43.476Z,1001.49
2017-11-25T01:01:43.459Z,1001.46
2017-11-25T01:02:43.453Z,1001.45
2017-11-25T01:03:43.453Z,1001.46
2017-11-25T01:04:43.448Z,1001.43
2017-11-25T01:05:43.442Z,1001.42
2017-11-25T01:06:43.436Z,1001.39
2017-11-25T01:07:43.434Z,1001.37
2017-11-25T01:08:43.437Z,1001.39
2017-11-25T01:09:43.424Z,1001.37
2017-11-25T01:10:43.423Z,1001.39
2017-11-25T01:11:43.415Z,1001.44
2017-11-25T01:12:43.419Z,1001.40
2017-11-25T01:13:43.408Z,1001.40
2017-11-25T01:14:43.404Z,1001.36
2017-11-25T01:15:43.398Z,1001.33
2017-11-25T01:16:43.394Z,1001.29
2017-11-25T01:17:43.389Z,1001.27
2017-11-25T01:18:43.387Z,1001.29
2017-11-25T01:19:43.381Z,1001.26
2017-11-25T01:20:43.378Z,1001.26
2017-11-25T01:21:43.370Z,1001.28
2017-11-25T01:22:43.368Z,1001.25
2017-11-25T01:23:43.371Z,1001.27
2017-11-25T01:24:43.364Z,1001.25
2017-11-25T01:25:43.356Z,1001.30
2017-11-25T01:26:43.352Z,1001.28
2017-11-25T01:27:43.348Z,1001.24
2017-11-25T01:28:43.347Z,1001.20
2017-11-25T01:29:43.341Z,1001.13
2017-11-25T01:30:43.337Z,1001.11
2017-11-25T01:31:43.330Z,1001.05
2017-11-25T01:32:43.331Z,1001.08
2017-11-25T01:33:43.319Z,1001.10
2017-11-25T01:34:43.317Z,1001.04
2017-11-25T01:35:43.313Z,1000.99
2017-11-25T01:36:43.311Z,1000.96
2017-11-25T01:37:43.302Z,1001.00
2017-11-25T01:38:43.299Z,1001.05
2017-11-25T01:39:43.295Z,1001.01
2017-11-25T01:40:43.295Z,1001.05
2017-11-25T01:41:43.285Z,1001.07
2017-11-25T01:42:43.281Z,1001.00
2017-11-25T01:43:43.280Z,1001.03
2017-11-25T01:44:43.278Z,1001.00
2017-11-25T01:45:43.270Z,1000.99
2017-11-25T01:46:43.274Z,1000.97
2017-11-25T01:47:43.262Z,1000.90
2017-11-25T01:48:43.257Z,1000.90
2017-11-25T01:49:43.251Z,1000.92
2017-11-25T01:50:43.247Z,1000.94
2017-11-25T01:51:43.243Z,1000.90
2017-11-25T01:52:43.242Z,1000.86
2017-11-25T01:53:43.236Z,1000.87
2017-11-25T01:54:43.230Z,1000.90
2017-11-25T01:55:43.227Z,1000.89
2017-11-25T01:56:43.223Z,1000.85
2017-11-25T01:57:43.216Z,1000.87
2017-11-25T01:58:43.214Z,1000.84
2017-11-25T01:59:43.209Z,1000.81
2017-11-25T02:00:43.208Z,1000.82
2017-11-25T02:01:43.201Z,1000.74
2017-11-25T02:02:43.196Z,1000.72
2017-11-25T02:03:43.195Z,1000.66
2017-11-25T02:04:43.189Z,1000.66
2017-11-25T02:05:43.185Z,1000.65
2017-11-25T02:06:43.178Z,1000.61
2017-11-25T02:07:43.176Z,1000.59
2017-11-25T02:08:43.183Z,1000.63
2017-11-25T02:09:43.166Z,1000.61
2017-11-25T02:10:43.169Z,1000.65
2017-11-25T02:11:43.158Z,1000.63
2017-11-25T02:12:43.162Z,1000.64
2017-11-25T02:13:43.148Z,1000.58
2017-11-25T02:14:43.146Z,1000.52
2017-11-25T02:15:43.141Z,1000.56
2017-11-25T02:16:43.138Z,1000.54
2017-11-25T02:17:43.131Z,1000.54
2017-11-25T02:18:43.647Z,1000.56
2017-11-25T02:19:43.123Z,1000.57
2017-11-25T02:20:43.120Z,1000.52
2017-11-25T02:21:43.117Z,1000.53
2017-11-25T02:22:43.110Z,1000.46
2017-11-25T02:23:43.106Z,1000.45
2017-11-25T02:24:43.102Z,1000.44
2017-11-25T02:25:43.098Z,1000.45
2017-11-25T02:26:43.093Z,1000.38
2017-11-25T02:27:43.088Z,1000.36
2017-11-25T02:28:43.089Z,1000.37
2017-11-25T02:29:43.078Z,1000.31
2017-11-25T02:30:43.078Z,1000.28
2017-11-25T02:31:43.073Z,1000.23
2017-11-25T02:32:43.074Z,1000.17
2017-11-25T02:33:43.069Z,1000.22
2017-11-25T02:34:43.061Z,1000.19
2017-11-25T02:35:43.057Z,1000.21
2017-11-25T02:36:43.053Z,1000.20
2017-11-25T02:37:43.050Z,1000.27
2017-11-25T02:38:43.044Z,1000.23
2017-11-25T02:39:43.044Z,1000.21
2017-11-25T02:40:43.036Z,1000.19
2017-11-25T02:41:43.040Z,1000.21
2017-11-25T02:42:43.031Z,1000.23
2017-11-25T02:43:43.023Z,1000.18
2017-11-25T02:44:43.024Z,1000.17
2017-11-25T02:45:43.017Z,1000.23
2017-11-25T02:46:43.012Z,1000.24
2017-11-25T02:47:43.013Z,1000.18
2017-11-25T02:48:43.005Z,1000.20
2017-11-25T02:49:43.002Z,1000.19
2017-11-25T02:50:42.995Z,1000.18
2017-11-25T02:51:42.998Z,1000.18
2017-11-25T02:52:42.991Z,1000.17
2017-11-25T02:53:42.985Z,1000.18
2017-11-25T02:54:42.985Z,1000.20
2017-11-25T02:55:42.979Z,1000.26
2017-11-25T02:56:42.983Z,1000.35
2017-11-25T02:57:42.969Z,1000.31
2017-11-25T02:58:42.979Z,1000.24
2017-11-25T02:59:42.960Z,1000.25
2017-11-25T03:00:42.954Z,1000.23
2017-11-25T03:01:42.945Z,1000.24
2017-11-25T03:02:42.940Z,1000.17
2017-11-25T03:03:42.958Z,1000.16
2017-11-25T03:04:42.954Z,1000.08
2017-11-25T03:05:42.927Z,1000.11
2017-11-25T03:06:42.929Z,1000.10
2017-11-25T03:07:42.928Z,1000.11
2017-11-25T03:08:42.921Z,1000.14
2017-11-25T03:09:42.914Z,1000.13
2017-11-25T03:10:42.916Z,1000.11
2017-11-25T03:11:42.908Z,1000.13
2017-11-25T03:12:43.016Z,1000.15
2017-11-25T03:13:42.899Z,1000.11
2017-11-25T03:14:42.894Z,1000.10
2017-11-25T03:15:42.895Z,1000.08
2017-11-25T03:16:42.894Z,1000.08
2017-11-25T03:17:42.880Z,1000.07
2017-11-25T03:18:42.877Z,1000.09
2017-11-25T03:19:42.872Z,1000.11
2017-11-25T03:20:42.870Z,1000.13
2017-11-25T03:21:42.866Z,1000.11
2017-11-25T03:22:42.860Z,1000.10
2017-11-25T03:23:42.857Z,1000.09
2017-11-25T03:24:42.852Z,1000.13
2017-11-25T03:25:42.847Z,1000.15
2017-11-25T03:26:42.847Z,1000.15
2017-11-25T03:27:42.841Z,1000.11
2017-11-25T03:28:42.836Z,1000.08
2017-11-25T03:29:42.831Z,1000.06
2017-11-25T03:30:42.829Z,999.98
2017-11-25T03:31:42.823Z,999.96
2017-11-25T03:32:42.820Z,999.91
2017-11-25T03:33:42.817Z,999.89
2017-11-25T03:34:42.812Z,999.88
2017-11-25T03:35:42.808Z,999.89
2017-11-25T03:36:42.803Z,999.91
2017-11-25T03:37:42.799Z,999.91
2017-11-25T03:38:42.797Z,999.90
2017-11-25T03:39:42.790Z,999.86
2017-11-25T03:40:42.790Z,999.86
2017-11-25T03:41:42.783Z,999.82
2017-11-25T03:42:42.779Z,999.84
2017-11-25T03:43:42.776Z,999.80
2017-11-25T03:44:42.771Z,999.81
2017-11-25T03:45:42.763Z,999.85
2017-11-25T03:46:42.763Z,999.89
2017-11-25T03:47:42.758Z,999.85
2017-11-25T03:48:42.757Z,999.81
2017-11-25T03:49:42.751Z,999.82
2017-11-25T03:50:42.752Z,999.84
2017-11-25T03:51:42.744Z,999.83
2017-11-25T03:52:42.739Z,999.78
2017-11-25T03:53:42.749Z,999.83
2017-11-25T03:54:42.729Z,999.79
2017-11-25T03:55:42.724Z,999.78
2017-11-25T03:56:42.721Z,999.74
2017-11-25T03:57:42.714Z,999.78
2017-11-25T03:58:42.716Z,999.76
2017-11-25T03:59:42.706Z,999.76
2017-11-25T04:00:42.705Z,999.75
2017-11-25T04:01:42.701Z,999.75
2017-11-25T04:02:42.702Z,999.72
2017-11-25T04:03:42.690Z,999.72
2017-11-25T04:04:42.698Z,999.74
2017-11-25T04:05:42.684Z,999.70
2017-11-25T04:06:42.680Z,999.69
2017-11-25T04:07:42.684Z,999.70
2017-11-25T04:08:42.674Z,999.68
2017-11-25T04:09:42.669Z,999.66
2017-11-25T04:10:42.658Z,999.69
2017-11-25T04:11:42.657Z,999.69
2017-11-25T04:12:42.655Z,999.70
2017-11-25T04:13:42.649Z,999.69
2017-11-25T04:14:42.643Z,999.66
2017-11-25T04:15:42.639Z,999.62
2017-11-25T04:16:42.639Z,999.66
2017-11-25T04:17:42.630Z,999.62
2017-11-25T04:18:42.630Z,999.65
2017-11-25T04:19:42.623Z,999.65
2017-11-25T04:20:42.624Z,999.64
2017-11-25T04:21:42.619Z,999.60
2017-11-25T04:22:42.615Z,999.63
2017-11-25T04:23:42.608Z,999.63
2017-11-25T04:24:42.610Z,999.63
2017-11-25T04:25:42.597Z,999.63
2017-11-25T04:26:42.594Z,999.63
2017-11-25T04:27:42.590Z,999.55
2017-11-25T04:28:42.584Z,999.54
2017-11-25T04:29:42.582Z,999.57
2017-11-25T04:30:42.578Z,999.60
2017-11-25T04:31:42.572Z,999.57
2017-11-25T04:32:42.568Z,999.56
2017-11-25T04:33:42.562Z,999.54
2017-11-25T04:34:42.561Z,999.54
2017-11-25T04:35:42.554Z,999.54
2017-11-25T04:36:42.549Z,999.55
2017-11-25T04:37:42.552Z,999.50
2017-11-25T04:38:42.544Z,999.52
2017-11-25T04:39:42.539Z,999.53
2017-11-25T04:40:42.533Z,999.51
2017-11-25T04:41:42.530Z,999.52
2017-11-25T04:42:42.526Z,999.54
2017-11-25T04:43:42.520Z,999.48
2017-11-25T04:44:42.517Z,999.49
2017-11-25T04:45:42.510Z,999.49
2017-11-25T04:46:42.509Z,999.46
2017-11-25T04:47:42.502Z,999.49
2017-11-25T04:48:42.501Z,999.45
2017-11-25T04:49:42.495Z,999.48
2017-11-25T04:50:42.492Z,999.42
2017-11-25T04:51:42.489Z,999.42
2017-11-25T04:52:42.484Z,999.43
2017-11-25T04:53:42.475Z,999.44
2017-11-25T04:54:42.473Z,999.46
2017-11-25T04:55:42.470Z,999.46
2017-11-25T04:56:42.466Z,999.44
2017-11-25T04:57:42.464Z,999.40
2017-11-25T04:58:42.457Z,999.41
2017-11-25T04:59:42.452Z,999.39
2017-11-25T05:00:42.450Z,999.37
2017-11-25T05:01:42.445Z,999.34
2017-11-25T05:02:42.439Z,999.36
2017-11-25T05:03:42.437Z,999.34
2017-11-25T05:04:42.443Z,999.33
2017-11-25T05:05:42.425Z,999.31
2017-11-25T05:06:42.421Z,999.29
2017-11-25T05:07:42.420Z,999.31
2017-11-25T05:08:42.416Z,999.30
2017-11-25T05:09:42.411Z,999.29
2017-11-25T05:10:42.406Z,999.28
2017-11-25T05:11:42.401Z,999.29
2017-11-25T05:12:42.396Z,999.30
2017-11-25T05:13:42.393Z,999.34
2017-11-25T05:14:42.387Z,999.32
2017-11-25T05:15:42.382Z,999.34
2017-11-25T05:16:42.384Z,999.33
2017-11-25T05:17:42.374Z,999.33
2017-11-25T05:18:42.367Z,999.32
2017-11-25T05:19:42.365Z,999.32
2017-11-25T05:20:42.362Z,999.34
2017-11-25T05:21:42.354Z,999.32
2017-11-25T05:22:42.350Z,999.30
2017-11-25T05:23:42.347Z,999.32
2017-11-25T05:24:42.344Z,999.30
2017-11-25T05:25:42.338Z,999.30
2017-11-25T05:26:42.334Z,999.31
2017-11-25T05:27:42.332Z,999.31
2017-11-25T05:28:42.324Z,999.32
2017-11-25T05:29:42.320Z,999.37
2017-11-25T05:30:42.316Z,999.36
2017-11-25T05:31:42.334Z,999.34
2017-11-25T05:32:42.309Z,999.38
2017-11-25T05:33:42.300Z,999.34
2017-11-25T05:34:42.297Z,999.31
2017-11-25T05:35:42.293Z,999.27
2017-11-25T05:36:42.287Z,999.30
2017-11-25T05:37:42.282Z,999.26
2017-11-25T05:38:42.278Z,999.24
2017-11-25T05:39:42.284Z,999.24
2017-11-25T05:40:42.272Z,999.23
2017-11-25T05:41:42.262Z,999.21
2017-11-25T05:42:42.263Z,999.23
2017-11-25T05:43:42.261Z,999.18
2017-11-25T05:44:42.253Z,999.17
2017-11-25T05:45:42.247Z,999.15
2017-11-25T05:46:42.243Z,999.14
2017-11-25T05:47:42.239Z,999.12
2017-11-25T05:48:42.230Z,999.12
2017-11-25T05:49:42.229Z,999.18
2017-11-25T05:50:42.225Z,999.19
2017-11-25T05:51:42.219Z,999.19
2017-11-25T05:52:42.218Z,999.19
2017-11-25T05:53:42.209Z,999.17
2017-11-25T05:54:42.205Z,999.17
2017-11-25T05:55:42.204Z,999.21
2017-11-25T05:56:42.197Z,999.22
2017-11-25T05:57:42.190Z,999.27
2017-11-25T05:58:42.187Z,999.29
2017-11-25T05:59:42.182Z,999.29
2017-11-25T06:00:42.184Z,999.30
2017-11-25T06:01:42.232Z,999.29
2017-11-25T06:02:42.171Z,999.23
2017-11-25T06:03:42.163Z,999.19
2017-11-25T06:04:42.160Z,999.19
2017-11-25T06:05:42.153Z,999.15
2017-11-25T06:06:42.151Z,999.16
2017-11-25T06:07:42.146Z,999.15
2017-11-25T06:08:42.141Z,999.17
2017-11-25T06:09:42.135Z,999.18
2017-11-25T06:10:42.131Z,999.19
2017-11-25T06:11:42.127Z,999.11
2017-11-25T06:12:42.122Z,999.11
2017-11-25T06:13:42.115Z,999.11
2017-11-25T06:14:42.112Z,999.12
2017-11-25T06:15:42.109Z,999.20
2017-11-25T06:16:42.105Z,999.21
2017-11-25T06:17:42.098Z,999.24
2017-11-25T06:18:42.092Z,999.27
2017-11-25T06:19:42.089Z,999.31
2017-11-25T06:20:42.085Z,999.33
2017-11-25T06:21:42.078Z,999.41
2017-11-25T06:22:42.074Z,999.39
2017-11-25T06:23:42.070Z,999.40
2017-11-25T06:24:42.066Z,999.38
2017-11-25T06:25:42.060Z,999.37
2017-11-25T06:26:42.055Z,999.40
2017-11-25T06:27:42.068Z,999.42
2017-11-25T06:28:42.048Z,999.44
2017-11-25T06:29:42.046Z,999.42
2017-11-25T06:30:42.037Z,999.40
2017-11-25T06:31:42.033Z,999.41
2017-11-25T06:32:42.028Z,999.41
2017-11-25T06:33:42.023Z,999.42
2017-11-25T06:34:42.019Z,999.41
2017-11-25T06:35:42.014Z,999.38
2017-11-25T06:36:42.009Z,999.44
2017-11-25T06:37:42.004Z,999.50
2017-11-25T06:38:42.004Z,999.56
2017-11-25T06:39:41.996Z,999.57
2017-11-25T06:40:41.998Z,999.55
2017-11-25T06:41:41.985Z,999.58
2017-11-25T06:42:41.982Z,999.59
2017-11-25T06:43:41.976Z,999.60
2017-11-25T06:44:41.972Z,999.63
2017-11-25T06:45:41.970Z,999.65
2017-11-25T06:46:41.960Z,999.70
2017-11-25T06:47:41.956Z,999.75
2017-11-25T06:48:41.953Z,999.70
2017-11-25T06:49:41.940Z,999.72
2017-11-25T06:50:41.945Z,999.71
2017-11-25T06:51:41.945Z,999.66
2017-11-25T06:52:41.934Z,999.66
2017-11-25T06:53:41.928Z,999.71
2017-11-25T06:54:41.925Z,999.73
2017-11-25T06:55:41.918Z,999.75
2017-11-25T06:56:41.917Z,999.73
2017-11-25T06:57:41.909Z,999.73
2017-11-25T06:58:41.904Z,999.70
2017-11-25T06:59:41.900Z,999.72
2017-11-25T07:00:41.896Z,999.73
2017-11-25T07:01:41.889Z,999.72
2017-11-25T07:02:41.887Z,999.71
2017-11-25T07:03:41.881Z,999.79
2017-11-25T07:04:41.878Z,999.83
2017-11-25T07:05:41.872Z,999.81
2017-11-25T07:06:41.864Z,999.81
2017-11-25T07:07:41.861Z,999.75
2017-11-25T07:08:41.858Z,999.71
2017-11-25T07:09:41.851Z,999.74
2017-11-25T07:10:41.848Z,999.74
2017-11-25T07:11:41.845Z,999.72
2017-11-25T07:12:41.837Z,999.74
2017-11-25T07:13:41.831Z,999.77
2017-11-25T07:14:41.828Z,999.80
2017-11-25T07:15:41.823Z,999.87
2017-11-25T07:16:41.819Z,999.87
2017-11-25T07:17:41.814Z,999.88
2017-11-25T07:18:41.819Z,999.83
2017-11-25T07:19:41.802Z,999.79
2017-11-25T07:20:41.802Z,999.80
2017-11-25T07:21:41.792Z,999.77
2017-11-25T07:22:41.787Z,999.78
2017-11-25T07:23:41.793Z,999.80
2017-11-25T07:24:41.781Z,999.80
2017-11-25T07:25:41.778Z,999.81
2017-11-25T07:26:41.773Z,999.83
2017-11-25T07:27:41.761Z,999.83
2017-11-25T07:28:41.762Z,999.84
2017-11-25T07:29:41.755Z,999.80
2017-11-25T07:30:41.752Z,999.82
2017-11-25T07:31:41.745Z,999.83
2017-11-25T07:32:41.740Z,999.85
2017-11-25T07:33:41.732Z,999.79
2017-11-25T07:34:41.731Z,999.81
2017-11-25T07:35:41.724Z,999.77
2017-11-25T07:36:41.720Z,999.79
2017-11-25T07:37:41.732Z,999.84
2017-11-25T07:38:41.709Z,999.82
2017-11-25T07:39:41.705Z,999.78
2017-11-25T07:40:41.704Z,999.79
2017-11-25T07:41:41.693Z,999.77
2017-11-25T07:42:41.691Z,999.79
2017-11-25T07:43:41.685Z,999.82
2017-11-25T07:44:41.678Z,999.82
2017-11-25T07:45:41.676Z,999.77
2017-11-25T07:46:41.674Z,999.76
2017-11-25T07:47:41.667Z,999.79
2017-11-25T07:48:41.663Z,999.82
2017-11-25T07:49:41.654Z,999.87
2017-11-25T07:50:41.651Z,999.84
2017-11-25T07:51:41.646Z,999.85
2017-11-25T07:52:41.644Z,999.89
2017-11-25T07:53:41.648Z,999.88
2017-11-25T07:54:41.632Z,999.89
2017-11-25T07:55:41.627Z,999.91
2017-11-25T07:56:41.621Z,999.86
2017-11-25T07:57:41.622Z,999.92
2017-11-25T07:58:41.611Z,999.91
2017-11-25T07:59:41.607Z,999.95
2017-11-25T08:00:41.601Z,999.96
2017-11-25T08:01:41.594Z,999.98
2017-11-25T08:02:41.593Z,999.97
2017-11-25T08:03:41.590Z,999.94
2017-11-25T08:04:41.582Z,999.95
2017-11-25T08:05:41.573Z,999.91
2017-11-25T08:06:41.571Z,999.98
2017-11-25T08:07:41.567Z,999.94
2017-11-25T08:08:41.559Z,999.93
2017-11-25T08:09:41.556Z,999.92
2017-11-25T08:10:41.551Z,999.95
2017-11-25T08:11:41.546Z,999.92
2017-11-25T08:12:41.540Z,999.93
2017-11-25T08:13:41.535Z,999.95
2017-11-25T08:14:41.531Z,999.96
2017-11-25T08:15:41.527Z,999.96
2017-11-25T08:16:41.518Z,999.98
2017-11-25T08:17:41.514Z,999.95
2017-11-25T08:18:41.514Z,999.96
2017-11-25T08:19:41.509Z,999.95
2017-11-25T08:20:41.499Z,999.97
2017-11-25T08:21:41.496Z,1000.00
2017-11-25T08:22:41.488Z,1000.00
2017-11-25T08:23:41.486Z,999.96
2017-11-25T08:24:41.493Z,999.97
2017-11-25T08:25:41.476Z,999.97
2017-11-25T08:26:41.469Z,999.97
2017-11-25T08:27:41.466Z,1000.06
2017-11-25T08:28:41.459Z,1000.11
2017-11-25T08:29:41.454Z,1000.10
2017-11-25T08:30:41.449Z,1000.11
2017-11-25T08:31:41.442Z,1000.16
2017-11-25T08:32:41.439Z,1000.18
2017-11-25T08:33:41.435Z,1000.19
2017-11-25T08:34:41.433Z,1000.22
2017-11-25T08:35:41.425Z,1000.20
2017-11-25T08:36:41.419Z,1000.23
2017-11-25T08:37:41.414Z,1000.21
2017-11-25T08:38:41.406Z,1000.28
2017-11-25T08:39:41.403Z,1000.31
2017-11-25T08:40:41.399Z,1000.33
2017-11-25T08:41:41.391Z,1000.27
2017-11-25T08:42:41.386Z,1000.33
2017-11-25T08:43:41.384Z,1000.32
2017-11-25T08:44:41.379Z,1000.30
2017-11-25T08:45:41.374Z,1000.34
2017-11-25T08:46:41.373Z,1000.35
2017-11-25T08:47:41.362Z,1000.41
2017-11-25T08:48:41.360Z,1000.40
2017-11-25T08:49:41.355Z,1000.43
2017-11-25T08:50:41.345Z,1000.43
2017-11-25T08:51:41.341Z,1000.40
2017-11-25T08:52:41.343Z,1000.30
2017-11-25T08:53:41.333Z,1000.29
2017-11-25T08:54:41.327Z,1000.30
2017-11-25T08:55:41.323Z,1000.35
2017-11-25T08:56:41.317Z,1000.35
2017-11-25T08:57:41.311Z,1000.34
2017-11-25T08:58:41.307Z,1000.37
2017-11-25T08:59:41.304Z,1000.38
2017-11-25T09:00:41.296Z,1000.43
2017-11-25T09:01:41.291Z,1000.41
2017-11-25T09:02:41.283Z,1000.37
2017-11-25T09:03:41.283Z,1000.42
2017-11-25T09:04:41.278Z,1000.39
2017-11-25T09:05:41.271Z,1000.47
2017-11-25T09:06:41.265Z,1000.50
2017-11-25T09:07:41.262Z,1000.55
2017-11-25T09:08:41.258Z,1000.56
2017-11-25T09:09:41.251Z,1000.60
2017-11-25T09:10:41.245Z,1000.61
2017-11-25T09:11:41.242Z,1000.64
2017-11-25T09:12:41.237Z,1000.65
2017-11-25T09:13:41.230Z,1000.68
2017-11-25T09:14:41.229Z,1000.71
2017-11-25T09:15:41.221Z,1000.74
2017-11-25T09:16:41.223Z,1000.81
2017-11-25T09:17:41.211Z,1000.81
2017-11-25T09:18:41.206Z,1000.83
2017-11-25T09:19:41.201Z,1000.80
2017-11-25T09:20:41.195Z,1000.80
2017-11-25T09:21:41.192Z,1000.78
2017-11-25T09:22:41.185Z,1000.76
2017-11-25T09:23:41.187Z,1000.71
2017-11-25T09:24:41.178Z,1000.72
2017-11-25T09:25:41.169Z,1000.75
2017-11-25T09:26:41.166Z,1000.75
2017-11-25T09:27:41.162Z,1000.82
2017-11-25T09:28:41.157Z,1000.83
2017-11-25T09:29:41.151Z,1000.90
2017-11-25T09:30:41.146Z,1000.91
2017-11-25T09:31:41.143Z,1000.89
2017-11-25T09:32:41.136Z,1000.89
2017-11-25T09:33:41.131Z,1000.88
2017-11-25T09:34:41.124Z,1000.88
2017-11-25T09:35:41.121Z,1000.86
2017-11-25T09:36:41.118Z,1000.93
2017-11-25T09:37:41.108Z,1000.92
2017-11-25T09:38:41.104Z,1000.91
2017-11-25T09:39:41.101Z,1000.92
2017-11-25T09:40:41.095Z,1000.90
2017-11-25T09:41:41.088Z,1000.89
2017-11-25T09:42:41.085Z,1000.91
2017-11-25T09:43:41.081Z,1000.88
2017-11-25T09:44:41.077Z,1000.88
2017-11-25T09:45:41.069Z,1000.77
2017-11-25T09:46:41.065Z,1000.73
2017-11-25T09:47:41.060Z,1000.77
2017-11-25T09:48:41.059Z,1000.80
2017-11-25T09:49:41.048Z,1000.84
2017-11-25T09:50:41.063Z,1000.89
2017-11-25T09:51:41.038Z,1000.86
2017-11-25T09:52:41.032Z,1000.84
2017-11-25T09:53:41.029Z,1000.87
2017-11-25T09:54:41.024Z,1000.90
2017-11-25T09:55:41.021Z,1000.91
2017-11-25T09:56:41.015Z,1000.95
2017-11-25T09:57:41.008Z,1000.95
2017-11-25T09:58:41.005Z,1001.00
2017-11-25T09:59:40.996Z,1001.02
2017-11-25T10:00:40.996Z,1001.00
2017-11-25T10:01:40.990Z,1000.99
2017-11-25T10:02:40.984Z,1000.99
2017-11-25T10:03:40.984Z,1000.99
2017-11-25T10:04:40.973Z,1000.99
2017-11-25T10:05:40.969Z,1000.97
2017-11-25T10:06:40.961Z,1000.98
2017-11-25T10:07:40.956Z,1000.98
2017-11-25T10:08:40.955Z,1000.99
2017-11-25T10:09:40.951Z,1001.01
2017-11-25T10:10:40.944Z,1000.97
2017-11-25T10:11:40.949Z,1001.04
2017-11-25T10:12:40.943Z,1001.04
2017-11-25T10:13:40.932Z,1001.01
2017-11-25T10:14:40.933Z,1001.00
2017-11-25T10:15:40.911Z,1000.97
2017-11-25T10:16:40.907Z,1000.97
2017-11-25T10:17:40.910Z,1001.00
2017-11-25T10:18:40.894Z,1001.01
2017-11-25T10:19:40.895Z,1001.04
2017-11-25T10:20:40.893Z,1001.09
2017-11-25T10:21:40.888Z,1001.15
2017-11-25T10:22:40.907Z,1001.14
2017-11-25T10:23:40.877Z,1001.14
2017-11-25T10:24:40.875Z,1001.20
2017-11-25T10:25:40.880Z,1001.16
2017-11-25T10:26:40.867Z,1001.15
2017-11-25T10:27:40.857Z,1001.15
2017-11-25T10:28:40.873Z,1001.20
2017-11-25T10:29:40.843Z,1001.21
2017-11-25T10:30:40.843Z,1001.22
2017-11-25T10:31:40.838Z,1001.20
2017-11-25T10:32:40.835Z,1001.17
2017-11-25T10:33:40.827Z,1001.19
2017-11-25T10:34:40.822Z,1001.16
2017-11-25T10:35:40.819Z,1001.22
2017-11-25T10:36:40.814Z,1001.15
2017-11-25T10:37:40.809Z,1001.16
2017-11-25T10:38:40.806Z,1001.18
2017-11-25T10:39:40.797Z,1001.15
2017-11-25T10:40:40.796Z,1001.14
2017-11-25T10:41:40.793Z,1001.14
2017-11-25T10:42:40.783Z,1001.15
2017-11-25T10:43:40.781Z,1001.18
2017-11-25T10:44:40.783Z,1001.13
2017-11-25T10:45:40.771Z,1001.11
2017-11-25T10:46:40.777Z,1001.11
2017-11-25T10:47:40.761Z,1001.07
2017-11-25T10:48:40.758Z,1000.98
2017-11-25T10:49:40.756Z,1000.90
2017-11-25T10:50:40.745Z,1000.91
2017-11-25T10:51:40.740Z,1000.86
2017-11-25T10:52:40.737Z,1000.90
2017-11-25T10:53:40.730Z,1000.89
2017-11-25T10:54:40.731Z,1000.92
2017-11-25T10:55:40.728Z,1000.96
2017-11-25T10:56:40.719Z,1000.99
2017-11-25T10:57:40.713Z,1001.02
2017-11-25T10:58:40.709Z,1001.09
2017-11-25T10:59:40.702Z,1001.10
2017-11-25T11:00:40.700Z,1001.08
2017-11-25T11:01:40.692Z,1001.12
2017-11-25T11:02:40.688Z,1001.19
2017-11-25T11:03:40.686Z,1001.27
2017-11-25T11:04:40.676Z,1001.25
2017-11-25T11:05:40.675Z,1001.26
2017-11-25T11:06:40.669Z,1001.35
2017-11-25T11:07:40.664Z,1001.36
2017-11-25T11:08:40.663Z,1001.36
2017-11-25T11:09:40.653Z,1001.37
2017-11-25T11:10:40.664Z,1001.38
2017-11-25T11:11:40.646Z,1001.38
2017-11-25T11:12:40.641Z,1001.42
2017-11-25T11:13:40.635Z,1001.48
2017-11-25T11:14:40.628Z,1001.57
2017-11-25T11:15:40.622Z,1001.64
2017-11-25T11:16:40.620Z,1001.61
2017-11-25T11:17:40.613Z,1001.66
2017-11-25T11:18:40.639Z,1001.71
2017-11-25T11:19:40.606Z,1001.66
2017-11-25T11:20:40.601Z,1001.66
2017-11-25T11:21:40.597Z,1001.69
2017-11-25T11:22:40.601Z,1001.71
2017-11-25T11:23:40.588Z,1001.66
2017-11-25T11:24:40.580Z,1001.64
2017-11-25T11:25:40.575Z,1001.67
2017-11-25T11:26:40.573Z,1001.70
2017-11-25T11:27:40.563Z,1001.75
2017-11-25T11:28:40.558Z,1001.76
2017-11-25T11:29:40.556Z,1001.85
2017-11-25T11:30:40.566Z,1001.91
2017-11-25T11:31:40.540Z,1001.91
2017-11-25T11:32:40.546Z,1001.94
2017-11-25T11:33:40.537Z,1001.94
2017-11-25T11:34:40.531Z,1001.90
2017-11-25T11:35:40.522Z,1001.88
2017-11-25T11:36:40.514Z,1001.86
2017-11-25T11:37:40.509Z,1001.88
2017-11-25T11:38:40.506Z,1001.95
2017-11-25T11:39:40.500Z,1001.97
2017-11-25T11:40:40.495Z,1002.01
2017-11-25T11:41:40.486Z,1002.04
2017-11-25T11:42:40.485Z,1002.13
2017-11-25T11:43:40.482Z,1002.08
2017-11-25T11:44:40.472Z,1002.10
2017-11-25T11:45:40.466Z,1002.10
2017-11-25T11:46:40.463Z,1002.09
2017-11-25T11:47:40.454Z,1002.12
2017-11-25T11:48:40.449Z,1002.13
2017-11-25T11:49:40.448Z,1002.15
2017-11-25T11:50:40.440Z,1002.14
2017-11-25T11:51:40.433Z,1002.14
2017-11-25T11:52:40.432Z,1002.12
2017-11-25T11:53:40.463Z,1002.09
2017-11-25T11:54:40.420Z,1002.11
2017-11-25T11:55:40.420Z,1002.06
2017-11-25T11:56:40.407Z,1002.12
2017-11-25T11:57:40.403Z,1002.18
2017-11-25T11:58:40.400Z,1002.22
2017-11-25T11:59:40.392Z,1002.20
2017-11-25T12:00:40.384Z,1002.20
2017-11-25T12:01:40.378Z,1002.24
2017-11-25T12:02:40.375Z,1002.24
2017-11-25T12:03:40.378Z,1002.30
2017-11-25T12:04:40.376Z,1002.28
2017-11-25T12:05:40.361Z,1002.25
2017-11-25T12:06:40.353Z,1002.32
2017-11-25T12:07:40.353Z,1002.26
2017-11-25T12:08:40.347Z,1002.29
2017-11-25T12:09:40.339Z,1002.33
2017-11-25T12:10:40.332Z,1002.26
2017-11-25T12:11:40.328Z,1002.32
2017-11-25T12:12:40.319Z,1002.32
2017-11-25T12:13:40.313Z,1002.38
2017-11-25T12:14:40.314Z,1002.40